sensor_id;sensor_type;location;lat;lon;timestamp;P1;durP1;ratioP1;P2;durP2;ratioP2
72037;SDS011;59900;50.788;12.904;2023-08-24T00:01:58;9.47;;;6.00;;
72037;SDS011;59900;50.788;12.904;2023-08-24T00:04:23;9.18;;;5.50;;
72037;SDS011;59900;50.788;12.904;2023-08-24T00:06:49;9.37;;;5.50;;
72037;SDS011;59900;50.788;12.904;2023-08-24T00:09:14;8.63;;;5.67;;
72037;SDS011;59900;50.788;12.904;2023-08-24T00:11:40;11.50;;;5.43;;
72037;SDS011;59900;50.788;12.904;2023-08-24T00:14:05;10.03;;;5.67;;
72037;SDS011;59900;50.788;12.904;2023-08-24T00:16:31;9.63;;;5.30;;
72037;SDS011;59900;50.788;12.904;2023-08-24T00:18:57;9.87;;;5.23;;
72037;SDS011;59900;50.788;12.904;2023-08-24T00:21:22;12.90;;;5.50;;
72037;SDS011;59900;50.788;12.904;2023-08-24T00:23:48;8.60;;;6.00;;
72037;SDS011;59900;50.788;12.904;2023-08-24T00:26:14;8.55;;;5.57;;
72037;SDS011;59900;50.788;12.904;2023-08-24T00:28:41;10.95;;;5.70;;
72037;SDS011;59900;50.788;12.904;2023-08-24T00:31:07;9.20;;;5.20;;
72037;SDS011;59900;50.788;12.904;2023-08-24T00:33:32;7.60;;;5.50;;
72037;SDS011;59900;50.788;12.904;2023-08-24T00:36:00;8.30;;;5.93;;
72037;SDS011;59900;50.788;12.904;2023-08-24T00:38:26;8.48;;;5.18;;
72037;SDS011;59900;50.788;12.904;2023-08-24T00:40:52;8.23;;;5.93;;
72037;SDS011;59900;50.788;12.904;2023-08-24T00:43:18;8.23;;;5.68;;
72037;SDS011;59900;50.788;12.904;2023-08-24T00:45:48;8.23;;;5.70;;
72037;SDS011;59900;50.788;12.904;2023-08-24T00:48:17;9.60;;;5.23;;
72037;SDS011;59900;50.788;12.904;2023-08-24T00:50:43;8.15;;;5.25;;
72037;SDS011;59900;50.788;12.904;2023-08-24T00:53:09;8.70;;;5.00;;
72037;SDS011;59900;50.788;12.904;2023-08-24T00:55:34;7.45;;;4.50;;
72037;SDS011;59900;50.788;12.904;2023-08-24T00:57:59;9.23;;;4.90;;
72037;SDS011;59900;50.788;12.904;2023-08-24T01:00:25;9.80;;;5.27;;
72037;SDS011;59900;50.788;12.904;2023-08-24T01:02:50;8.03;;;4.87;;
72037;SDS011;59900;50.788;12.904;2023-08-24T01:05:15;8.43;;;4.73;;
72037;SDS011;59900;50.788;12.904;2023-08-24T01:07:40;9.50;;;5.43;;
72037;SDS011;59900;50.788;12.904;2023-08-24T01:10:06;10.03;;;5.43;;
72037;SDS011;59900;50.788;12.904;2023-08-24T01:15:37;9.25;;;5.00;;
72037;SDS011;59900;50.788;12.904;2023-08-24T01:18:08;8.02;;;5.05;;
72037;SDS011;59900;50.788;12.904;2023-08-24T01:20:38;7.63;;;4.90;;
72037;SDS011;59900;50.788;12.904;2023-08-24T01:25:51;9.48;;;4.95;;
72037;SDS011;59900;50.788;12.904;2023-08-24T01:28:18;9.73;;;5.47;;
72037;SDS011;59900;50.788;12.904;2023-08-24T01:30:45;8.85;;;5.53;;
72037;SDS011;59900;50.788;12.904;2023-08-24T01:33:11;9.40;;;4.97;;
72037;SDS011;59900;50.788;12.904;2023-08-24T01:35:38;8.43;;;4.90;;
72037;SDS011;59900;50.788;12.904;2023-08-24T01:38:04;9.55;;;5.15;;
72037;SDS011;59900;50.788;12.904;2023-08-24T01:40:39;7.85;;;4.80;;
72037;SDS011;59900;50.788;12.904;2023-08-24T01:43:09;9.43;;;5.40;;
72037;SDS011;59900;50.788;12.904;2023-08-24T01:45:35;8.77;;;5.20;;
72037;SDS011;59900;50.788;12.904;2023-08-24T01:48:01;8.37;;;4.87;;
72037;SDS011;59900;50.788;12.904;2023-08-24T01:50:29;8.95;;;5.22;;
72037;SDS011;59900;50.788;12.904;2023-08-24T01:52:55;10.48;;;4.95;;
72037;SDS011;59900;50.788;12.904;2023-08-24T01:55:20;8.70;;;5.30;;
72037;SDS011;59900;50.788;12.904;2023-08-24T01:57:46;9.15;;;5.53;;
72037;SDS011;59900;50.788;12.904;2023-08-24T02:00:11;8.03;;;5.10;;
72037;SDS011;59900;50.788;12.904;2023-08-24T02:02:37;8.80;;;5.18;;
72037;SDS011;59900;50.788;12.904;2023-08-24T02:05:02;8.47;;;5.27;;
72037;SDS011;59900;50.788;12.904;2023-08-24T02:07:28;10.20;;;6.03;;
72037;SDS011;59900;50.788;12.904;2023-08-24T02:09:54;10.02;;;5.03;;
72037;SDS011;59900;50.788;12.904;2023-08-24T02:12:19;8.47;;;5.83;;
72037;SDS011;59900;50.788;12.904;2023-08-24T02:14:44;9.40;;;5.97;;
72037;SDS011;59900;50.788;12.904;2023-08-24T02:17:10;9.10;;;5.83;;
72037;SDS011;59900;50.788;12.904;2023-08-24T02:19:35;11.80;;;5.90;;
72037;SDS011;59900;50.788;12.904;2023-08-24T02:22:00;7.67;;;5.53;;
72037;SDS011;59900;50.788;12.904;2023-08-24T02:24:25;11.23;;;5.57;;
72037;SDS011;59900;50.788;12.904;2023-08-24T02:26:51;9.90;;;5.70;;
72037;SDS011;59900;50.788;12.904;2023-08-24T02:29:16;12.67;;;6.40;;
72037;SDS011;59900;50.788;12.904;2023-08-24T02:31:41;9.97;;;6.37;;
72037;SDS011;59900;50.788;12.904;2023-08-24T02:34:07;10.13;;;6.00;;
72037;SDS011;59900;50.788;12.904;2023-08-24T02:36:32;8.27;;;6.10;;
72037;SDS011;59900;50.788;12.904;2023-08-24T02:38:58;10.65;;;6.38;;
72037;SDS011;59900;50.788;12.904;2023-08-24T02:41:24;9.15;;;6.03;;
72037;SDS011;59900;50.788;12.904;2023-08-24T02:43:50;10.23;;;6.87;;
72037;SDS011;59900;50.788;12.904;2023-08-24T02:46:15;8.60;;;5.73;;
72037;SDS011;59900;50.788;12.904;2023-08-24T02:48:40;9.17;;;6.17;;
72037;SDS011;59900;50.788;12.904;2023-08-24T02:51:07;9.93;;;6.77;;
72037;SDS011;59900;50.788;12.904;2023-08-24T02:53:33;9.57;;;6.00;;
72037;SDS011;59900;50.788;12.904;2023-08-24T02:56:02;12.23;;;6.60;;
72037;SDS011;59900;50.788;12.904;2023-08-24T02:58:28;9.07;;;6.07;;
72037;SDS011;59900;50.788;12.904;2023-08-24T03:00:54;9.80;;;5.78;;
72037;SDS011;59900;50.788;12.904;2023-08-24T03:03:20;10.43;;;6.25;;
72037;SDS011;59900;50.788;12.904;2023-08-24T03:06:02;8.43;;;5.87;;
72037;SDS011;59900;50.788;12.904;2023-08-24T03:08:29;10.32;;;6.18;;
72037;SDS011;59900;50.788;12.904;2023-08-24T03:10:55;13.35;;;6.57;;
72037;SDS011;59900;50.788;12.904;2023-08-24T03:13:21;11.90;;;5.97;;
72037;SDS011;59900;50.788;12.904;2023-08-24T03:15:46;8.53;;;5.63;;
72037;SDS011;59900;50.788;12.904;2023-08-24T03:18:12;8.40;;;5.30;;
72037;SDS011;59900;50.788;12.904;2023-08-24T03:20:38;7.40;;;5.60;;
72037;SDS011;59900;50.788;12.904;2023-08-24T03:23:05;10.30;;;6.15;;
72037;SDS011;59900;50.788;12.904;2023-08-24T03:25:31;8.32;;;5.78;;
72037;SDS011;59900;50.788;12.904;2023-08-24T03:28:00;8.45;;;5.40;;
72037;SDS011;59900;50.788;12.904;2023-08-24T03:30:25;11.37;;;5.57;;
72037;SDS011;59900;50.788;12.904;2023-08-24T03:32:50;8.53;;;5.70;;
72037;SDS011;59900;50.788;12.904;2023-08-24T03:35:16;8.40;;;5.10;;
72037;SDS011;59900;50.788;12.904;2023-08-24T03:37:41;11.43;;;5.73;;
72037;SDS011;59900;50.788;12.904;2023-08-24T03:40:06;10.90;;;5.77;;
72037;SDS011;59900;50.788;12.904;2023-08-24T03:42:32;8.77;;;5.37;;
72037;SDS011;59900;50.788;12.904;2023-08-24T03:44:59;8.80;;;5.60;;
72037;SDS011;59900;50.788;12.904;2023-08-24T03:47:24;7.88;;;5.30;;
72037;SDS011;59900;50.788;12.904;2023-08-24T03:49:50;7.83;;;4.77;;
72037;SDS011;59900;50.788;12.904;2023-08-24T03:52:15;9.30;;;5.43;;
72037;SDS011;59900;50.788;12.904;2023-08-24T03:54:40;9.23;;;5.80;;
72037;SDS011;59900;50.788;12.904;2023-08-24T03:57:05;8.43;;;5.37;;
72037;SDS011;59900;50.788;12.904;2023-08-24T03:59:31;8.50;;;4.57;;
72037;SDS011;59900;50.788;12.904;2023-08-24T04:01:56;8.17;;;4.83;;
72037;SDS011;59900;50.788;12.904;2023-08-24T04:04:24;8.60;;;5.17;;
72037;SDS011;59900;50.788;12.904;2023-08-24T04:06:49;7.47;;;4.80;;
72037;SDS011;59900;50.788;12.904;2023-08-24T04:09:15;7.47;;;4.90;;
72037;SDS011;59900;50.788;12.904;2023-08-24T04:11:40;9.13;;;5.50;;
72037;SDS011;59900;50.788;12.904;2023-08-24T04:14:05;8.40;;;5.20;;
72037;SDS011;59900;50.788;12.904;2023-08-24T04:16:30;8.27;;;5.23;;
72037;SDS011;59900;50.788;12.904;2023-08-24T04:18:56;9.33;;;5.73;;
72037;SDS011;59900;50.788;12.904;2023-08-24T04:21:21;8.90;;;4.43;;
72037;SDS011;59900;50.788;12.904;2023-08-24T04:23:46;7.87;;;4.70;;
72037;SDS011;59900;50.788;12.904;2023-08-24T04:26:11;9.00;;;4.80;;
72037;SDS011;59900;50.788;12.904;2023-08-24T04:28:38;7.97;;;4.97;;
72037;SDS011;59900;50.788;12.904;2023-08-24T04:31:03;11.23;;;5.10;;
72037;SDS011;59900;50.788;12.904;2023-08-24T04:33:28;7.63;;;4.87;;
72037;SDS011;59900;50.788;12.904;2023-08-24T04:35:54;9.80;;;5.03;;
72037;SDS011;59900;50.788;12.904;2023-08-24T04:38:19;10.10;;;5.17;;
72037;SDS011;59900;50.788;12.904;2023-08-24T04:40:48;8.57;;;5.03;;
72037;SDS011;59900;50.788;12.904;2023-08-24T04:43:16;10.32;;;4.80;;
72037;SDS011;59900;50.788;12.904;2023-08-24T04:45:42;9.88;;;5.57;;
72037;SDS011;59900;50.788;12.904;2023-08-24T04:48:07;8.43;;;5.20;;
72037;SDS011;59900;50.788;12.904;2023-08-24T04:50:32;7.03;;;5.03;;
72037;SDS011;59900;50.788;12.904;2023-08-24T04:52:58;8.52;;;4.90;;
72037;SDS011;59900;50.788;12.904;2023-08-24T04:55:23;9.53;;;4.80;;
72037;SDS011;59900;50.788;12.904;2023-08-24T04:57:49;7.73;;;4.90;;
72037;SDS011;59900;50.788;12.904;2023-08-24T05:00:14;8.70;;;5.60;;
72037;SDS011;59900;50.788;12.904;2023-08-24T05:02:41;7.82;;;5.10;;
72037;SDS011;59900;50.788;12.904;2023-08-24T05:05:07;10.25;;;5.72;;
72037;SDS011;59900;50.788;12.904;2023-08-24T05:07:35;9.47;;;4.90;;
72037;SDS011;59900;50.788;12.904;2023-08-24T05:10:00;7.65;;;4.97;;
72037;SDS011;59900;50.788;12.904;2023-08-24T05:12:25;7.17;;;5.00;;
72037;SDS011;59900;50.788;12.904;2023-08-24T05:14:51;11.17;;;5.13;;
72037;SDS011;59900;50.788;12.904;2023-08-24T05:17:16;7.83;;;5.10;;
72037;SDS011;59900;50.788;12.904;2023-08-24T05:19:41;9.30;;;4.70;;
72037;SDS011;59900;50.788;12.904;2023-08-24T05:22:06;11.87;;;5.13;;
72037;SDS011;59900;50.788;12.904;2023-08-24T05:24:32;12.30;;;5.70;;
72037;SDS011;59900;50.788;12.904;2023-08-24T05:26:57;8.70;;;5.20;;
72037;SDS011;59900;50.788;12.904;2023-08-24T05:29:22;12.23;;;5.40;;
72037;SDS011;59900;50.788;12.904;2023-08-24T05:31:47;7.07;;;4.90;;
72037;SDS011;59900;50.788;12.904;2023-08-24T05:34:13;8.80;;;4.90;;
72037;SDS011;59900;50.788;12.904;2023-08-24T05:36:38;6.93;;;4.70;;
72037;SDS011;59900;50.788;12.904;2023-08-24T05:39:03;8.93;;;5.30;;
72037;SDS011;59900;50.788;12.904;2023-08-24T05:41:28;7.93;;;4.83;;
72037;SDS011;59900;50.788;12.904;2023-08-24T05:43:54;8.40;;;5.00;;
72037;SDS011;59900;50.788;12.904;2023-08-24T05:46:19;7.33;;;4.60;;
72037;SDS011;59900;50.788;12.904;2023-08-24T05:48:44;9.83;;;5.07;;
72037;SDS011;59900;50.788;12.904;2023-08-24T05:51:09;7.70;;;5.10;;
72037;SDS011;59900;50.788;12.904;2023-08-24T05:53:37;7.47;;;4.95;;
72037;SDS011;59900;50.788;12.904;2023-08-24T05:56:03;8.90;;;5.60;;
72037;SDS011;59900;50.788;12.904;2023-08-24T05:58:28;7.43;;;4.77;;
72037;SDS011;59900;50.788;12.904;2023-08-24T06:00:57;7.80;;;4.80;;
72037;SDS011;59900;50.788;12.904;2023-08-24T06:03:24;10.93;;;5.70;;
72037;SDS011;59900;50.788;12.904;2023-08-24T06:05:49;7.97;;;5.50;;
72037;SDS011;59900;50.788;12.904;2023-08-24T06:08:15;9.97;;;6.03;;
72037;SDS011;59900;50.788;12.904;2023-08-24T06:10:40;9.23;;;6.20;;
72037;SDS011;59900;50.788;12.904;2023-08-24T06:13:06;8.43;;;5.57;;
72037;SDS011;59900;50.788;12.904;2023-08-24T06:15:31;8.10;;;5.13;;
72037;SDS011;59900;50.788;12.904;2023-08-24T06:17:56;10.40;;;5.20;;
72037;SDS011;59900;50.788;12.904;2023-08-24T06:20:24;9.27;;;5.30;;
72037;SDS011;59900;50.788;12.904;2023-08-24T06:22:49;9.13;;;5.23;;
72037;SDS011;59900;50.788;12.904;2023-08-24T06:25:15;7.97;;;5.35;;
72037;SDS011;59900;50.788;12.904;2023-08-24T06:27:40;9.13;;;5.03;;
72037;SDS011;59900;50.788;12.904;2023-08-24T06:30:05;10.77;;;4.93;;
72037;SDS011;59900;50.788;12.904;2023-08-24T06:32:31;9.63;;;5.33;;
72037;SDS011;59900;50.788;12.904;2023-08-24T06:34:56;8.05;;;4.97;;
72037;SDS011;59900;50.788;12.904;2023-08-24T06:37:21;10.17;;;5.10;;
72037;SDS011;59900;50.788;12.904;2023-08-24T06:39:47;8.70;;;5.30;;
72037;SDS011;59900;50.788;12.904;2023-08-24T06:42:12;8.63;;;5.50;;
72037;SDS011;59900;50.788;12.904;2023-08-24T06:44:37;8.47;;;5.27;;
72037;SDS011;59900;50.788;12.904;2023-08-24T06:47:02;10.33;;;5.80;;
72037;SDS011;59900;50.788;12.904;2023-08-24T06:49:28;7.90;;;5.07;;
72037;SDS011;59900;50.788;12.904;2023-08-24T06:51:53;8.97;;;5.33;;
72037;SDS011;59900;50.788;12.904;2023-08-24T06:54:19;8.87;;;5.40;;
72037;SDS011;59900;50.788;12.904;2023-08-24T06:56:44;8.40;;;6.13;;
72037;SDS011;59900;50.788;12.904;2023-08-24T06:59:09;8.43;;;5.53;;
72037;SDS011;59900;50.788;12.904;2023-08-24T07:01:37;7.63;;;5.20;;
72037;SDS011;59900;50.788;12.904;2023-08-24T07:04:03;8.97;;;5.23;;
72037;SDS011;59900;50.788;12.904;2023-08-24T07:06:28;13.33;;;5.30;;
72037;SDS011;59900;50.788;12.904;2023-08-24T07:08:53;8.17;;;5.70;;
72037;SDS011;59900;50.788;12.904;2023-08-24T07:11:19;8.50;;;5.20;;
72037;SDS011;59900;50.788;12.904;2023-08-24T07:13:45;9.10;;;5.40;;
72037;SDS011;59900;50.788;12.904;2023-08-24T07:16:11;8.30;;;5.10;;
72037;SDS011;59900;50.788;12.904;2023-08-24T07:18:36;9.23;;;5.17;;
72037;SDS011;59900;50.788;12.904;2023-08-24T07:21:01;10.33;;;4.87;;
72037;SDS011;59900;50.788;12.904;2023-08-24T07:23:26;9.80;;;5.10;;
72037;SDS011;59900;50.788;12.904;2023-08-24T07:25:52;8.07;;;4.83;;
72037;SDS011;59900;50.788;12.904;2023-08-24T07:28:17;9.60;;;5.20;;
72037;SDS011;59900;50.788;12.904;2023-08-24T07:30:42;7.00;;;5.00;;
72037;SDS011;59900;50.788;12.904;2023-08-24T07:33:08;8.57;;;5.07;;
72037;SDS011;59900;50.788;12.904;2023-08-24T07:35:33;7.53;;;5.03;;
72037;SDS011;59900;50.788;12.904;2023-08-24T07:37:59;9.60;;;4.90;;
72037;SDS011;59900;50.788;12.904;2023-08-24T07:40:25;8.00;;;5.28;;
72037;SDS011;59900;50.788;12.904;2023-08-24T07:42:51;8.00;;;5.80;;
72037;SDS011;59900;50.788;12.904;2023-08-24T07:45:19;8.63;;;4.67;;
72037;SDS011;59900;50.788;12.904;2023-08-24T07:47:45;8.20;;;4.68;;
72037;SDS011;59900;50.788;12.904;2023-08-24T07:50:10;11.90;;;5.50;;
72037;SDS011;59900;50.788;12.904;2023-08-24T07:52:37;8.00;;;5.18;;
72037;SDS011;59900;50.788;12.904;2023-08-24T07:55:03;9.83;;;5.37;;
72037;SDS011;59900;50.788;12.904;2023-08-24T07:57:29;7.60;;;4.95;;
72037;SDS011;59900;50.788;12.904;2023-08-24T07:59:56;8.27;;;4.80;;
72037;SDS011;59900;50.788;12.904;2023-08-24T08:02:21;7.50;;;5.00;;
72037;SDS011;59900;50.788;12.904;2023-08-24T08:04:46;7.63;;;4.37;;
72037;SDS011;59900;50.788;12.904;2023-08-24T08:07:12;9.17;;;4.90;;
72037;SDS011;59900;50.788;12.904;2023-08-24T08:09:37;7.88;;;4.63;;
72037;SDS011;59900;50.788;12.904;2023-08-24T08:12:03;9.03;;;4.93;;
72037;SDS011;59900;50.788;12.904;2023-08-24T08:14:28;7.73;;;5.10;;
72037;SDS011;59900;50.788;12.904;2023-08-24T08:16:54;8.35;;;4.78;;
72037;SDS011;59900;50.788;12.904;2023-08-24T08:19:20;6.63;;;4.70;;
72037;SDS011;59900;50.788;12.904;2023-08-24T08:21:46;9.80;;;5.10;;
72037;SDS011;59900;50.788;12.904;2023-08-24T08:24:12;7.70;;;4.60;;
72037;SDS011;59900;50.788;12.904;2023-08-24T08:26:37;11.40;;;4.77;;
72037;SDS011;59900;50.788;12.904;2023-08-24T08:29:03;7.75;;;4.68;;
72037;SDS011;59900;50.788;12.904;2023-08-24T08:31:28;6.73;;;4.20;;
72037;SDS011;59900;50.788;12.904;2023-08-24T08:33:53;9.27;;;5.10;;
72037;SDS011;59900;50.788;12.904;2023-08-24T08:36:19;8.03;;;4.50;;
72037;SDS011;59900;50.788;12.904;2023-08-24T08:38:44;8.03;;;4.70;;
72037;SDS011;59900;50.788;12.904;2023-08-24T08:41:09;8.87;;;4.67;;
72037;SDS011;59900;50.788;12.904;2023-08-24T08:43:35;11.23;;;5.10;;
72037;SDS011;59900;50.788;12.904;2023-08-24T08:46:03;8.70;;;4.97;;
72037;SDS011;59900;50.788;12.904;2023-08-24T08:48:30;8.00;;;4.82;;
72037;SDS011;59900;50.788;12.904;2023-08-24T08:50:57;8.73;;;4.80;;
72037;SDS011;59900;50.788;12.904;2023-08-24T08:53:23;7.83;;;4.77;;
72037;SDS011;59900;50.788;12.904;2023-08-24T08:55:52;8.25;;;4.57;;
72037;SDS011;59900;50.788;12.904;2023-08-24T08:58:18;7.57;;;4.80;;
72037;SDS011;59900;50.788;12.904;2023-08-24T09:00:45;10.52;;;5.00;;
72037;SDS011;59900;50.788;12.904;2023-08-24T09:03:12;8.57;;;4.83;;
72037;SDS011;59900;50.788;12.904;2023-08-24T09:05:41;7.47;;;4.90;;
72037;SDS011;59900;50.788;12.904;2023-08-24T09:08:06;10.90;;;5.00;;
72037;SDS011;59900;50.788;12.904;2023-08-24T09:10:32;9.82;;;4.70;;
72037;SDS011;59900;50.788;12.904;2023-08-24T09:12:57;7.93;;;4.67;;
72037;SDS011;59900;50.788;12.904;2023-08-24T09:15:23;6.97;;;4.20;;
72037;SDS011;59900;50.788;12.904;2023-08-24T09:17:50;11.70;;;4.90;;
72037;SDS011;59900;50.788;12.904;2023-08-24T09:20:16;7.90;;;4.60;;
72037;SDS011;59900;50.788;12.904;2023-08-24T09:22:41;9.23;;;4.83;;
72037;SDS011;59900;50.788;12.904;2023-08-24T09:25:09;7.38;;;4.90;;
72037;SDS011;59900;50.788;12.904;2023-08-24T09:27:35;7.10;;;4.70;;
72037;SDS011;59900;50.788;12.904;2023-08-24T09:30:00;10.77;;;4.87;;
72037;SDS011;59900;50.788;12.904;2023-08-24T09:32:29;7.43;;;4.30;;
72037;SDS011;59900;50.788;12.904;2023-08-24T09:34:58;8.93;;;4.60;;
72037;SDS011;59900;50.788;12.904;2023-08-24T09:37:31;9.52;;;4.45;;
72037;SDS011;59900;50.788;12.904;2023-08-24T09:40:02;7.87;;;4.10;;
72037;SDS011;59900;50.788;12.904;2023-08-24T09:42:43;6.97;;;3.88;;
72037;SDS011;59900;50.788;12.904;2023-08-24T09:45:12;8.00;;;4.35;;
72037;SDS011;59900;50.788;12.904;2023-08-24T09:47:39;8.15;;;3.80;;
72037;SDS011;59900;50.788;12.904;2023-08-24T09:50:04;11.73;;;4.30;;
72037;SDS011;59900;50.788;12.904;2023-08-24T09:52:31;9.38;;;4.10;;
72037;SDS011;59900;50.788;12.904;2023-08-24T09:55:02;7.75;;;4.05;;
72037;SDS011;59900;50.788;12.904;2023-08-24T09:57:33;12.60;;;4.77;;
72037;SDS011;59900;50.788;12.904;2023-08-24T10:00:03;8.95;;;4.15;;
72037;SDS011;59900;50.788;12.904;2023-08-24T10:02:35;8.57;;;4.57;;
72037;SDS011;59900;50.788;12.904;2023-08-24T10:05:01;6.60;;;4.15;;
72037;SDS011;59900;50.788;12.904;2023-08-24T10:07:28;8.40;;;4.38;;
72037;SDS011;59900;50.788;12.904;2023-08-24T10:09:59;8.20;;;4.17;;
72037;SDS011;59900;50.788;12.904;2023-08-24T10:12:31;9.43;;;4.35;;
72037;SDS011;59900;50.788;12.904;2023-08-24T10:15:01;7.57;;;4.32;;
72037;SDS011;59900;50.788;12.904;2023-08-24T10:17:28;7.53;;;4.22;;
72037;SDS011;59900;50.788;12.904;2023-08-24T10:19:56;10.70;;;4.53;;
72037;SDS011;59900;50.788;12.904;2023-08-24T10:22:26;7.63;;;4.03;;
72037;SDS011;59900;50.788;12.904;2023-08-24T10:24:53;6.45;;;3.90;;
72037;SDS011;59900;50.788;12.904;2023-08-24T10:27:20;7.55;;;4.22;;
72037;SDS011;59900;50.788;12.904;2023-08-24T10:29:47;7.28;;;3.90;;
72037;SDS011;59900;50.788;12.904;2023-08-24T10:32:13;8.47;;;4.27;;
72037;SDS011;59900;50.788;12.904;2023-08-24T10:34:39;8.02;;;3.92;;
72037;SDS011;59900;50.788;12.904;2023-08-24T10:37:10;9.07;;;3.90;;
72037;SDS011;59900;50.788;12.904;2023-08-24T10:39:43;8.50;;;3.90;;
72037;SDS011;59900;50.788;12.904;2023-08-24T10:42:10;7.70;;;3.50;;
72037;SDS011;59900;50.788;12.904;2023-08-24T10:44:37;10.00;;;3.95;;
72037;SDS011;59900;50.788;12.904;2023-08-24T10:54:48;8.55;;;3.90;;
72037;SDS011;59900;50.788;12.904;2023-08-24T11:05:18;7.50;;;3.80;;
72037;SDS011;59900;50.788;12.904;2023-08-24T11:07:53;7.68;;;4.00;;
72037;SDS011;59900;50.788;12.904;2023-08-24T11:10:22;8.70;;;3.97;;
72037;SDS011;59900;50.788;12.904;2023-08-24T11:13:05;7.38;;;4.03;;
72037;SDS011;59900;50.788;12.904;2023-08-24T11:15:44;6.97;;;3.92;;
72037;SDS011;59900;50.788;12.904;2023-08-24T11:20:44;9.68;;;3.95;;
72037;SDS011;59900;50.788;12.904;2023-08-24T11:23:11;15.57;;;4.40;;
72037;SDS011;59900;50.788;12.904;2023-08-24T11:25:37;8.38;;;4.40;;
72037;SDS011;59900;50.788;12.904;2023-08-24T11:28:03;9.73;;;4.37;;
72037;SDS011;59900;50.788;12.904;2023-08-24T11:30:29;6.22;;;3.88;;
72037;SDS011;59900;50.788;12.904;2023-08-24T11:32:56;8.48;;;4.50;;
72037;SDS011;59900;50.788;12.904;2023-08-24T11:35:21;9.73;;;3.97;;
72037;SDS011;59900;50.788;12.904;2023-08-24T11:37:54;8.20;;;4.50;;
72037;SDS011;59900;50.788;12.904;2023-08-24T11:40:20;9.90;;;4.72;;
72037;SDS011;59900;50.788;12.904;2023-08-24T11:42:53;6.57;;;3.90;;
72037;SDS011;59900;50.788;12.904;2023-08-24T11:45:19;7.33;;;4.13;;
72037;SDS011;59900;50.788;12.904;2023-08-24T11:47:44;5.93;;;3.77;;
72037;SDS011;59900;50.788;12.904;2023-08-24T11:50:09;7.60;;;3.90;;
72037;SDS011;59900;50.788;12.904;2023-08-24T11:52:41;8.67;;;4.47;;
72037;SDS011;59900;50.788;12.904;2023-08-24T11:55:07;13.52;;;4.30;;
72037;SDS011;59900;50.788;12.904;2023-08-24T11:57:34;7.43;;;4.30;;
72037;SDS011;59900;50.788;12.904;2023-08-24T11:59:59;9.02;;;4.40;;
72037;SDS011;59900;50.788;12.904;2023-08-24T12:02:26;8.57;;;4.57;;
72037;SDS011;59900;50.788;12.904;2023-08-24T12:04:52;7.25;;;4.60;;
72037;SDS011;59900;50.788;12.904;2023-08-24T12:07:19;9.30;;;4.50;;
72037;SDS011;59900;50.788;12.904;2023-08-24T12:09:45;7.70;;;4.30;;
72037;SDS011;59900;50.788;12.904;2023-08-24T12:12:14;7.80;;;4.17;;
72037;SDS011;59900;50.788;12.904;2023-08-24T12:14:43;7.80;;;4.65;;
72037;SDS011;59900;50.788;12.904;2023-08-24T12:17:09;7.88;;;4.43;;
72037;SDS011;59900;50.788;12.904;2023-08-24T12:19:35;7.53;;;4.50;;
72037;SDS011;59900;50.788;12.904;2023-08-24T12:22:00;7.87;;;4.17;;
72037;SDS011;59900;50.788;12.904;2023-08-24T12:24:26;7.18;;;4.20;;
72037;SDS011;59900;50.788;12.904;2023-08-24T12:26:57;7.77;;;4.37;;
72037;SDS011;59900;50.788;12.904;2023-08-24T12:29:23;6.70;;;4.33;;
72037;SDS011;59900;50.788;12.904;2023-08-24T12:31:49;7.03;;;4.28;;
72037;SDS011;59900;50.788;12.904;2023-08-24T12:34:14;6.97;;;4.40;;
72037;SDS011;59900;50.788;12.904;2023-08-24T12:36:41;7.35;;;4.43;;
72037;SDS011;59900;50.788;12.904;2023-08-24T12:39:10;9.57;;;4.73;;
72037;SDS011;59900;50.788;12.904;2023-08-24T12:41:37;6.70;;;4.32;;
72037;SDS011;59900;50.788;12.904;2023-08-24T12:44:03;8.00;;;4.40;;
72037;SDS011;59900;50.788;12.904;2023-08-24T12:46:33;8.40;;;4.53;;
72037;SDS011;59900;50.788;12.904;2023-08-24T12:49:00;6.90;;;4.32;;
72037;SDS011;59900;50.788;12.904;2023-08-24T12:51:25;7.78;;;4.38;;
72037;SDS011;59900;50.788;12.904;2023-08-24T12:53:50;6.70;;;4.40;;
72037;SDS011;59900;50.788;12.904;2023-08-24T12:56:16;6.57;;;4.30;;
72037;SDS011;59900;50.788;12.904;2023-08-24T12:58:41;9.50;;;4.30;;
72037;SDS011;59900;50.788;12.904;2023-08-24T13:01:06;7.30;;;4.27;;
72037;SDS011;59900;50.788;12.904;2023-08-24T13:03:32;8.60;;;4.70;;
72037;SDS011;59900;50.788;12.904;2023-08-24T13:05:57;6.90;;;4.30;;
72037;SDS011;59900;50.788;12.904;2023-08-24T13:08:23;7.20;;;4.20;;
72037;SDS011;59900;50.788;12.904;2023-08-24T13:10:49;6.13;;;3.83;;
72037;SDS011;59900;50.788;12.904;2023-08-24T13:13:15;6.30;;;4.10;;
72037;SDS011;59900;50.788;12.904;2023-08-24T13:15:41;6.73;;;4.30;;
72037;SDS011;59900;50.788;12.904;2023-08-24T13:18:06;8.83;;;4.17;;
72037;SDS011;59900;50.788;12.904;2023-08-24T13:20:31;6.53;;;4.23;;
72037;SDS011;59900;50.788;12.904;2023-08-24T13:22:56;10.87;;;4.30;;
72037;SDS011;59900;50.788;12.904;2023-08-24T13:25:22;6.65;;;4.03;;
72037;SDS011;59900;50.788;12.904;2023-08-24T13:27:47;8.33;;;4.27;;
72037;SDS011;59900;50.788;12.904;2023-08-24T13:30:12;10.27;;;3.73;;
72037;SDS011;59900;50.788;12.904;2023-08-24T13:32:38;6.73;;;3.93;;
72037;SDS011;59900;50.788;12.904;2023-08-24T13:35:04;6.25;;;4.07;;
72037;SDS011;59900;50.788;12.904;2023-08-24T13:37:29;7.27;;;3.80;;
72037;SDS011;59900;50.788;12.904;2023-08-24T13:39:55;7.00;;;4.20;;
72037;SDS011;59900;50.788;12.904;2023-08-24T13:42:20;7.90;;;4.20;;
72037;SDS011;59900;50.788;12.904;2023-08-24T13:44:45;7.63;;;3.70;;
72037;SDS011;59900;50.788;12.904;2023-08-24T13:47:11;6.07;;;3.90;;
72037;SDS011;59900;50.788;12.904;2023-08-24T13:49:36;7.33;;;3.87;;
72037;SDS011;59900;50.788;12.904;2023-08-24T13:52:02;6.00;;;3.80;;
72037;SDS011;59900;50.788;12.904;2023-08-24T13:54:27;7.87;;;3.80;;
72037;SDS011;59900;50.788;12.904;2023-08-24T13:56:53;9.27;;;4.10;;
72037;SDS011;59900;50.788;12.904;2023-08-24T13:59:19;6.28;;;3.60;;
72037;SDS011;59900;50.788;12.904;2023-08-24T14:01:45;8.80;;;4.40;;
72037;SDS011;59900;50.788;12.904;2023-08-24T14:04:10;7.10;;;4.60;;
72037;SDS011;59900;50.788;12.904;2023-08-24T14:06:35;8.40;;;4.03;;
72037;SDS011;59900;50.788;12.904;2023-08-24T14:09:02;9.27;;;3.50;;
72037;SDS011;59900;50.788;12.904;2023-08-24T14:11:28;7.18;;;3.42;;
72037;SDS011;59900;50.788;12.904;2023-08-24T14:13:54;6.27;;;3.37;;
72037;SDS011;59900;50.788;12.904;2023-08-24T14:16:19;5.43;;;3.50;;
72037;SDS011;59900;50.788;12.904;2023-08-24T14:18:45;7.60;;;3.90;;
72037;SDS011;59900;50.788;12.904;2023-08-24T14:21:11;6.00;;;3.42;;
72037;SDS011;59900;50.788;12.904;2023-08-24T14:23:36;7.33;;;3.20;;
72037;SDS011;59900;50.788;12.904;2023-08-24T14:26:01;11.23;;;3.50;;
72037;SDS011;59900;50.788;12.904;2023-08-24T14:28:48;5.43;;;3.30;;
72037;SDS011;59900;50.788;12.904;2023-08-24T14:31:12;6.57;;;3.50;;
72037;SDS011;59900;50.788;12.904;2023-08-24T14:33:38;6.65;;;3.15;;
72037;SDS011;59900;50.788;12.904;2023-08-24T14:36:03;7.20;;;3.30;;
72037;SDS011;59900;50.788;12.904;2023-08-24T14:38:28;9.97;;;3.60;;
72037;SDS011;59900;50.788;12.904;2023-08-24T14:40:53;8.40;;;3.20;;
72037;SDS011;59900;50.788;12.904;2023-08-24T14:43:19;5.93;;;3.63;;
72037;SDS011;59900;50.788;12.904;2023-08-24T14:45:44;5.50;;;2.90;;
72037;SDS011;59900;50.788;12.904;2023-08-24T14:48:09;6.07;;;2.80;;
72037;SDS011;59900;50.788;12.904;2023-08-24T14:50:37;5.87;;;3.30;;
72037;SDS011;59900;50.788;12.904;2023-08-24T14:53:03;4.80;;;2.80;;